sensor_id;sensor_type;location;lat;lon;timestamp;temperature;humidity
51815;DHT22;37874;53.158;6.766;2022-07-23T00:00:33;21.00;55.20
51815;DHT22;37874;53.158;6.766;2022-07-23T00:02:59;21.00;55.30
51815;DHT22;37874;53.158;6.766;2022-07-23T00:05:25;21.00;55.30
51815;DHT22;37874;53.158;6.766;2022-07-23T00:07:51;20.90;55.40
51815;DHT22;37874;53.158;6.766;2022-07-23T00:10:17;20.90;55.60
51815;DHT22;37874;53.158;6.766;2022-07-23T00:12:43;20.90;55.70
51815;DHT22;37874;53.158;6.766;2022-07-23T00:15:10;20.90;55.80
51815;DHT22;37874;53.158;6.766;2022-07-23T00:17:36;20.90;55.90
51815;DHT22;37874;53.158;6.766;2022-07-23T00:20:02;20.90;55.90
51815;DHT22;37874;53.158;6.766;2022-07-23T00:22:29;20.90;55.90
51815;DHT22;37874;53.158;6.766;2022-07-23T00:24:56;20.90;56.00
51815;DHT22;37874;53.158;6.766;2022-07-23T00:27:22;20.80;56.00
51815;DHT22;37874;53.158;6.766;2022-07-23T00:29:48;20.90;56.10
51815;DHT22;37874;53.158;6.766;2022-07-23T00:32:14;20.90;56.10
51815;DHT22;37874;53.158;6.766;2022-07-23T00:34:40;20.80;56.00
51815;DHT22;37874;53.158;6.766;2022-07-23T00:37:06;20.80;56.00
51815;DHT22;37874;53.158;6.766;2022-07-23T00:39:32;20.80;56.00
51815;DHT22;37874;53.158;6.766;2022-07-23T00:41:58;20.80;56.10
51815;DHT22;37874;53.158;6.766;2022-07-23T00:44:27;20.80;56.10
51815;DHT22;37874;53.158;6.766;2022-07-23T00:46:56;20.70;56.20
51815;DHT22;37874;53.158;6.766;2022-07-23T00:49:25;20.70;56.40
51815;DHT22;37874;53.158;6.766;2022-07-23T00:51:52;20.60;56.40
51815;DHT22;37874;53.158;6.766;2022-07-23T00:54:18;20.60;56.60
51815;DHT22;37874;53.158;6.766;2022-07-23T00:56:46;20.60;56.60
51815;DHT22;37874;53.158;6.766;2022-07-23T00:59:12;20.60;56.70
51815;DHT22;37874;53.158;6.766;2022-07-23T01:01:39;20.50;56.70
51815;DHT22;37874;53.158;6.766;2022-07-23T01:04:05;20.50;56.80
51815;DHT22;37874;53.158;6.766;2022-07-23T01:06:34;20.50;56.90
51815;DHT22;37874;53.158;6.766;2022-07-23T01:09:04;20.50;56.90
51815;DHT22;37874;53.158;6.766;2022-07-23T01:11:35;20.50;56.90
51815;DHT22;37874;53.158;6.766;2022-07-23T01:14:09;20.50;56.90
51815;DHT22;37874;53.158;6.766;2022-07-23T01:16:35;20.50;57.00
51815;DHT22;37874;53.158;6.766;2022-07-23T01:19:01;20.50;56.90
51815;DHT22;37874;53.158;6.766;2022-07-23T01:21:27;20.50;56.90
51815;DHT22;37874;53.158;6.766;2022-07-23T01:23:53;20.50;57.00
51815;DHT22;37874;53.158;6.766;2022-07-23T01:26:19;20.50;57.00
51815;DHT22;37874;53.158;6.766;2022-07-23T01:28:44;20.50;56.90
51815;DHT22;37874;53.158;6.766;2022-07-23T01:34:32;20.50;56.70
51815;DHT22;37874;53.158;6.766;2022-07-23T01:36:58;20.50;56.70
51815;DHT22;37874;53.158;6.766;2022-07-23T01:40:01;20.40;56.70
51815;DHT22;37874;53.158;6.766;2022-07-23T01:42:46;20.50;56.70
51815;DHT22;37874;53.158;6.766;2022-07-23T01:48:53;20.40;56.70
51815;DHT22;37874;53.158;6.766;2022-07-23T01:55:18;20.40;56.90
51815;DHT22;37874;53.158;6.766;2022-07-23T02:01:05;20.30;57.10
51815;DHT22;37874;53.158;6.766;2022-07-23T02:13:00;20.10;57.10
51815;DHT22;37874;53.158;6.766;2022-07-23T02:15:48;20.00;57.20
51815;DHT22;37874;53.158;6.766;2022-07-23T02:24:21;19.90;57.80
51815;DHT22;37874;53.158;6.766;2022-07-23T02:30:27;19.90;57.70
51815;DHT22;37874;53.158;6.766;2022-07-23T02:46:04;19.70;58.00
51815;DHT22;37874;53.158;6.766;2022-07-23T02:55:15;19.80;58.30
51815;DHT22;37874;53.158;6.766;2022-07-23T02:57:59;19.70;58.50
51815;DHT22;37874;53.158;6.766;2022-07-23T03:04:06;19.70;58.10
51815;DHT22;37874;53.158;6.766;2022-07-23T03:07:09;19.70;58.20
51815;DHT22;37874;53.158;6.766;2022-07-23T03:16:00;19.70;58.30
51815;DHT22;37874;53.158;6.766;2022-07-23T03:19:04;19.70;58.30
51815;DHT22;37874;53.158;6.766;2022-07-23T03:24:51;19.80;58.30
51815;DHT22;37874;53.158;6.766;2022-07-23T03:30:58;19.80;58.20
51815;DHT22;37874;53.158;6.766;2022-07-23T03:33:29;19.80;58.30
51815;DHT22;37874;53.158;6.766;2022-07-23T03:35:54;19.80;58.30
51815;DHT22;37874;53.158;6.766;2022-07-23T03:38:21;19.80;58.40
51815;DHT22;37874;53.158;6.766;2022-07-23T03:40:47;19.80;58.40
51815;DHT22;37874;53.158;6.766;2022-07-23T03:43:12;19.80;58.40
51815;DHT22;37874;53.158;6.766;2022-07-23T03:45:38;19.80;58.60
51815;DHT22;37874;53.158;6.766;2022-07-23T03:48:04;19.80;58.50
51815;DHT22;37874;53.158;6.766;2022-07-23T03:50:30;19.90;58.50
51815;DHT22;37874;53.158;6.766;2022-07-23T03:52:56;19.90;58.40
51815;DHT22;37874;53.158;6.766;2022-07-23T03:55:22;19.90;58.40
51815;DHT22;37874;53.158;6.766;2022-07-23T03:57:48;19.90;58.50
51815;DHT22;37874;53.158;6.766;2022-07-23T04:00:14;19.90;58.40
51815;DHT22;37874;53.158;6.766;2022-07-23T04:02:40;20.00;58.40
51815;DHT22;37874;53.158;6.766;2022-07-23T04:05:07;20.00;58.40
51815;DHT22;37874;53.158;6.766;2022-07-23T04:07:33;19.90;58.30
51815;DHT22;37874;53.158;6.766;2022-07-23T04:09:58;19.90;58.30
51815;DHT22;37874;53.158;6.766;2022-07-23T04:12:24;19.90;58.50
51815;DHT22;37874;53.158;6.766;2022-07-23T04:14:50;20.00;58.30
51815;DHT22;37874;53.158;6.766;2022-07-23T04:17:16;20.00;58.10
51815;DHT22;37874;53.158;6.766;2022-07-23T04:19:42;20.00;57.90
51815;DHT22;37874;53.158;6.766;2022-07-23T04:22:12;19.80;57.70
51815;DHT22;37874;53.158;6.766;2022-07-23T04:24:38;20.00;57.80
51815;DHT22;37874;53.158;6.766;2022-07-23T04:27:05;20.00;57.60
51815;DHT22;37874;53.158;6.766;2022-07-23T04:29:31;20.00;57.60
51815;DHT22;37874;53.158;6.766;2022-07-23T04:31:57;20.00;57.50
51815;DHT22;37874;53.158;6.766;2022-07-23T04:34:23;20.00;57.50
51815;DHT22;37874;53.158;6.766;2022-07-23T04:36:49;20.00;57.50
51815;DHT22;37874;53.158;6.766;2022-07-23T04:39:15;20.00;57.60
51815;DHT22;37874;53.158;6.766;2022-07-23T04:41:41;20.00;57.60
51815;DHT22;37874;53.158;6.766;2022-07-23T04:44:07;20.00;57.60
51815;DHT22;37874;53.158;6.766;2022-07-23T04:46:33;20.00;57.70
51815;DHT22;37874;53.158;6.766;2022-07-23T04:48:59;20.10;57.60
51815;DHT22;37874;53.158;6.766;2022-07-23T04:51:25;20.10;57.60
51815;DHT22;37874;53.158;6.766;2022-07-23T04:53:51;20.00;57.40
51815;DHT22;37874;53.158;6.766;2022-07-23T04:56:17;20.10;57.40
51815;DHT22;37874;53.158;6.766;2022-07-23T04:58:43;20.10;57.50
51815;DHT22;37874;53.158;6.766;2022-07-23T05:01:09;20.10;57.50
51815;DHT22;37874;53.158;6.766;2022-07-23T05:03:35;20.10;57.40
51815;DHT22;37874;53.158;6.766;2022-07-23T05:06:01;20.20;57.60
51815;DHT22;37874;53.158;6.766;2022-07-23T05:08:28;20.20;57.60
51815;DHT22;37874;53.158;6.766;2022-07-23T05:10:54;20.20;57.60
51815;DHT22;37874;53.158;6.766;2022-07-23T05:13:20;20.20;57.60
51815;DHT22;37874;53.158;6.766;2022-07-23T05:15:46;20.20;57.60
51815;DHT22;37874;53.158;6.766;2022-07-23T05:18:12;20.20;58.30
51815;DHT22;37874;53.158;6.766;2022-07-23T05:20:38;20.20;57.70
51815;DHT22;37874;53.158;6.766;2022-07-23T05:23:05;20.20;57.80
51815;DHT22;37874;53.158;6.766;2022-07-23T05:25:31;20.20;58.10
51815;DHT22;37874;53.158;6.766;2022-07-23T05:27:57;20.20;58.10
51815;DHT22;37874;53.158;6.766;2022-07-23T05:30:23;20.20;58.20
51815;DHT22;37874;53.158;6.766;2022-07-23T05:32:49;20.20;58.20
51815;DHT22;37874;53.158;6.766;2022-07-23T05:35:19;20.20;58.70
51815;DHT22;37874;53.158;6.766;2022-07-23T05:37:45;20.20;58.20
51815;DHT22;37874;53.158;6.766;2022-07-23T05:40:11;20.20;58.20
51815;DHT22;37874;53.158;6.766;2022-07-23T05:42:38;20.20;58.20
51815;DHT22;37874;53.158;6.766;2022-07-23T05:45:05;20.20;58.20
51815;DHT22;37874;53.158;6.766;2022-07-23T05:47:51;20.20;58.30
51815;DHT22;37874;53.158;6.766;2022-07-23T05:50:17;20.20;58.10
51815;DHT22;37874;53.158;6.766;2022-07-23T05:52:42;20.20;58.00
51815;DHT22;37874;53.158;6.766;2022-07-23T05:55:09;20.20;58.00
51815;DHT22;37874;53.158;6.766;2022-07-23T05:57:36;20.20;58.10
51815;DHT22;37874;53.158;6.766;2022-07-23T06:00:04;20.30;58.10
51815;DHT22;37874;53.158;6.766;2022-07-23T06:02:30;20.30;57.90
51815;DHT22;37874;53.158;6.766;2022-07-23T06:04:55;20.40;58.00
51815;DHT22;37874;53.158;6.766;2022-07-23T06:07:21;20.40;57.50
51815;DHT22;37874;53.158;6.766;2022-07-23T06:09:47;20.40;57.50
51815;DHT22;37874;53.158;6.766;2022-07-23T06:12:15;20.40;57.50
51815;DHT22;37874;53.158;6.766;2022-07-23T06:14:40;20.50;57.50
51815;DHT22;37874;53.158;6.766;2022-07-23T06:17:06;20.50;57.40
51815;DHT22;37874;53.158;6.766;2022-07-23T06:19:32;20.50;57.50
51815;DHT22;37874;53.158;6.766;2022-07-23T06:21:57;20.60;57.50
51815;DHT22;37874;53.158;6.766;2022-07-23T06:24:23;20.60;57.30
51815;DHT22;37874;53.158;6.766;2022-07-23T06:26:48;20.70;57.10
51815;DHT22;37874;53.158;6.766;2022-07-23T06:29:14;20.90;57.10
51815;DHT22;37874;53.158;6.766;2022-07-23T06:31:39;20.90;56.90
51815;DHT22;37874;53.158;6.766;2022-07-23T06:34:05;21.10;56.00
51815;DHT22;37874;53.158;6.766;2022-07-23T06:36:31;21.10;56.10
51815;DHT22;37874;53.158;6.766;2022-07-23T06:38:56;21.10;55.40
51815;DHT22;37874;53.158;6.766;2022-07-23T06:41:22;21.20;55.10
51815;DHT22;37874;53.158;6.766;2022-07-23T06:43:48;21.50;55.10
51815;DHT22;37874;53.158;6.766;2022-07-23T06:46:14;21.30;54.80
51815;DHT22;37874;53.158;6.766;2022-07-23T06:48:39;21.30;54.70
51815;DHT22;37874;53.158;6.766;2022-07-23T06:51:05;21.40;54.80
51815;DHT22;37874;53.158;6.766;2022-07-23T06:53:31;21.40;55.00
51815;DHT22;37874;53.158;6.766;2022-07-23T06:55:56;21.40;54.40
51815;DHT22;37874;53.158;6.766;2022-07-23T06:58:22;21.40;54.50
51815;DHT22;37874;53.158;6.766;2022-07-23T07:00:48;21.50;53.90
51815;DHT22;37874;53.158;6.766;2022-07-23T07:03:13;21.40;54.50
51815;DHT22;37874;53.158;6.766;2022-07-23T07:05:39;21.40;53.70
51815;DHT22;37874;53.158;6.766;2022-07-23T07:08:05;21.40;53.50
51815;DHT22;37874;53.158;6.766;2022-07-23T07:10:32;21.50;53.60
51815;DHT22;37874;53.158;6.766;2022-07-23T07:12:57;21.50;53.30
51815;DHT22;37874;53.158;6.766;2022-07-23T07:15:23;21.60;52.90
51815;DHT22;37874;53.158;6.766;2022-07-23T07:17:49;21.60;52.20
51815;DHT22;37874;53.158;6.766;2022-07-23T07:20:14;21.60;52.30
51815;DHT22;37874;53.158;6.766;2022-07-23T07:22:40;21.60;52.50
51815;DHT22;37874;53.158;6.766;2022-07-23T07:25:06;21.70;52.10
51815;DHT22;37874;53.158;6.766;2022-07-23T07:27:32;21.80;52.10
51815;DHT22;37874;53.158;6.766;2022-07-23T07:29:58;21.80;52.00
51815;DHT22;37874;53.158;6.766;2022-07-23T07:32:23;21.90;51.60
51815;DHT22;37874;53.158;6.766;2022-07-23T07:34:49;22.00;51.30
51815;DHT22;37874;53.158;6.766;2022-07-23T07:37:15;22.00;51.70
51815;DHT22;37874;53.158;6.766;2022-07-23T07:39:41;22.00;51.50
51815;DHT22;37874;53.158;6.766;2022-07-23T07:42:06;22.00;51.70
51815;DHT22;37874;53.158;6.766;2022-07-23T07:44:32;22.00;51.80
51815;DHT22;37874;53.158;6.766;2022-07-23T07:46:57;22.00;51.20
51815;DHT22;37874;53.158;6.766;2022-07-23T07:49:23;22.10;51.50
51815;DHT22;37874;53.158;6.766;2022-07-23T07:51:49;22.10;50.90
51815;DHT22;37874;53.158;6.766;2022-07-23T07:54:15;22.00;51.10
51815;DHT22;37874;53.158;6.766;2022-07-23T07:56:41;22.10;51.30
51815;DHT22;37874;53.158;6.766;2022-07-23T07:59:06;22.10;50.60
51815;DHT22;37874;53.158;6.766;2022-07-23T08:01:32;22.10;50.40
51815;DHT22;37874;53.158;6.766;2022-07-23T08:03:58;22.10;50.80
51815;DHT22;37874;53.158;6.766;2022-07-23T08:06:23;22.10;50.40
51815;DHT22;37874;53.158;6.766;2022-07-23T08:08:49;22.00;49.70
51815;DHT22;37874;53.158;6.766;2022-07-23T08:11:15;22.10;48.00
51815;DHT22;37874;53.158;6.766;2022-07-23T08:13:40;22.20;47.30
51815;DHT22;37874;53.158;6.766;2022-07-23T08:16:06;22.20;47.80
51815;DHT22;37874;53.158;6.766;2022-07-23T08:18:32;22.30;47.20
51815;DHT22;37874;53.158;6.766;2022-07-23T08:20:57;22.30;46.40
51815;DHT22;37874;53.158;6.766;2022-07-23T08:23:23;22.40;46.20
51815;DHT22;37874;53.158;6.766;2022-07-23T08:25:49;22.40;46.10
51815;DHT22;37874;53.158;6.766;2022-07-23T08:28:15;22.40;46.40
51815;DHT22;37874;53.158;6.766;2022-07-23T08:30:44;22.40;46.40
51815;DHT22;37874;53.158;6.766;2022-07-23T08:33:15;22.40;46.90
51815;DHT22;37874;53.158;6.766;2022-07-23T08:35:44;22.40;46.70
51815;DHT22;37874;53.158;6.766;2022-07-23T08:38:14;22.40;46.90
51815;DHT22;37874;53.158;6.766;2022-07-23T08:40:43;22.50;47.00
51815;DHT22;37874;53.158;6.766;2022-07-23T08:43:12;22.50;46.60
51815;DHT22;37874;53.158;6.766;2022-07-23T08:45:41;22.60;47.00
51815;DHT22;37874;53.158;6.766;2022-07-23T08:48:11;22.70;47.30
51815;DHT22;37874;53.158;6.766;2022-07-23T08:50:42;22.70;46.40
51815;DHT22;37874;53.158;6.766;2022-07-23T08:53:08;22.60;46.60
51815;DHT22;37874;53.158;6.766;2022-07-23T08:55:35;22.60;46.70
51815;DHT22;37874;53.158;6.766;2022-07-23T08:58:01;22.60;46.00
51815;DHT22;37874;53.158;6.766;2022-07-23T09:00:27;22.60;45.90
51815;DHT22;37874;53.158;6.766;2022-07-23T09:02:52;22.60;46.10
51815;DHT22;37874;53.158;6.766;2022-07-23T09:05:19;22.60;46.30
51815;DHT22;37874;53.158;6.766;2022-07-23T09:08:04;22.50;46.40
51815;DHT22;37874;53.158;6.766;2022-07-23T09:13:40;22.70;46.90
51815;DHT22;37874;53.158;6.766;2022-07-23T09:16:15;22.60;47.20
51815;DHT22;37874;53.158;6.766;2022-07-23T09:18:55;22.50;46.90
51815;DHT22;37874;53.158;6.766;2022-07-23T09:21:33;22.70;47.10
51815;DHT22;37874;53.158;6.766;2022-07-23T09:24:05;22.70;47.40
51815;DHT22;37874;53.158;6.766;2022-07-23T09:26:40;22.70;47.00
51815;DHT22;37874;53.158;6.766;2022-07-23T09:29:19;22.80;46.20
51815;DHT22;37874;53.158;6.766;2022-07-23T09:36:43;22.80;46.30
51815;DHT22;37874;53.158;6.766;2022-07-23T09:39:10;22.80;46.30
51815;DHT22;37874;53.158;6.766;2022-07-23T09:41:41;22.70;46.40
51815;DHT22;37874;53.158;6.766;2022-07-23T09:44:09;22.70;46.80
51815;DHT22;37874;53.158;6.766;2022-07-23T09:46:35;22.80;47.00
51815;DHT22;37874;53.158;6.766;2022-07-23T09:49:10;23.00;46.30
51815;DHT22;37874;53.158;6.766;2022-07-23T09:51:45;23.00;45.50
51815;DHT22;37874;53.158;6.766;2022-07-23T09:56:57;23.20;46.10
51815;DHT22;37874;53.158;6.766;2022-07-23T09:59:31;23.10;45.80
51815;DHT22;37874;53.158;6.766;2022-07-23T10:01:58;23.20;45.30
51815;DHT22;37874;53.158;6.766;2022-07-23T10:04:26;23.20;45.50
51815;DHT22;37874;53.158;6.766;2022-07-23T10:06:55;23.30;46.10
51815;DHT22;37874;53.158;6.766;2022-07-23T10:09:41;23.30;45.50
51815;DHT22;37874;53.158;6.766;2022-07-23T10:12:12;23.40;45.50
51815;DHT22;37874;53.158;6.766;2022-07-23T10:14:57;23.30;45.20
51815;DHT22;37874;53.158;6.766;2022-07-23T10:17:23;23.40;45.60
51815;DHT22;37874;53.158;6.766;2022-07-23T10:19:49;23.30;45.70
51815;DHT22;37874;53.158;6.766;2022-07-23T10:24:52;23.30;45.70
51815;DHT22;37874;53.158;6.766;2022-07-23T10:38:52;23.30;45.80
51815;DHT22;37874;53.158;6.766;2022-07-23T10:41:35;23.50;45.50
51815;DHT22;37874;53.158;6.766;2022-07-23T10:44:11;23.50;45.60
51815;DHT22;37874;53.158;6.766;2022-07-23T10:46:58;23.50;45.20
51815;DHT22;37874;53.158;6.766;2022-07-23T10:49:43;23.50;45.30
51815;DHT22;37874;53.158;6.766;2022-07-23T10:52:19;23.50;45.80
51815;DHT22;37874;53.158;6.766;2022-07-23T10:54:50;23.50;45.80
51815;DHT22;37874;53.158;6.766;2022-07-23T10:57:18;23.50;45.90
51815;DHT22;37874;53.158;6.766;2022-07-23T11:02:30;23.60;46.20
51815;DHT22;37874;53.158;6.766;2022-07-23T11:05:00;23.60;45.70
51815;DHT22;37874;53.158;6.766;2022-07-23T11:07:26;23.60;46.30
51815;DHT22;37874;53.158;6.766;2022-07-23T11:09:52;23.70;46.30
51815;DHT22;37874;53.158;6.766;2022-07-23T11:15:10;23.70;46.00
51815;DHT22;37874;53.158;6.766;2022-07-23T11:17:58;23.70;46.30
51815;DHT22;37874;53.158;6.766;2022-07-23T11:20:27;23.60;46.10
51815;DHT22;37874;53.158;6.766;2022-07-23T11:22:58;23.70;46.10
51815;DHT22;37874;53.158;6.766;2022-07-23T11:28:09;23.70;45.80
51815;DHT22;37874;53.158;6.766;2022-07-23T11:35:37;23.70;46.00
51815;DHT22;37874;53.158;6.766;2022-07-23T11:38:18;23.70;46.30
51815;DHT22;37874;53.158;6.766;2022-07-23T11:40:46;23.80;46.40
51815;DHT22;37874;53.158;6.766;2022-07-23T11:43:13;23.80;46.10
51815;DHT22;37874;53.158;6.766;2022-07-23T11:45:44;23.70;45.60
51815;DHT22;37874;53.158;6.766;2022-07-23T11:48:22;23.80;45.80
51815;DHT22;37874;53.158;6.766;2022-07-23T11:50:50;23.80;45.80
51815;DHT22;37874;53.158;6.766;2022-07-23T11:53:27;23.80;45.70
51815;DHT22;37874;53.158;6.766;2022-07-23T11:55:53;23.80;45.90
51815;DHT22;37874;53.158;6.766;2022-07-23T11:58:20;23.80;46.20
51815;DHT22;37874;53.158;6.766;2022-07-23T12:00:47;23.80;46.20
51815;DHT22;37874;53.158;6.766;2022-07-23T12:03:13;23.80;46.20
51815;DHT22;37874;53.158;6.766;2022-07-23T12:05:39;24.00;46.90
51815;DHT22;37874;53.158;6.766;2022-07-23T12:08:09;23.80;46.10
51815;DHT22;37874;53.158;6.766;2022-07-23T12:10:41;23.80;46.00
51815;DHT22;37874;53.158;6.766;2022-07-23T12:13:13;23.70;46.40
51815;DHT22;37874;53.158;6.766;2022-07-23T12:15:40;23.70;46.50
51815;DHT22;37874;53.158;6.766;2022-07-23T12:18:09;23.70;46.30
51815;DHT22;37874;53.158;6.766;2022-07-23T12:20:41;23.80;46.90
51815;DHT22;37874;53.158;6.766;2022-07-23T12:23:11;23.90;46.60
51815;DHT22;37874;53.158;6.766;2022-07-23T12:25:39;24.00;46.80
51815;DHT22;37874;53.158;6.766;2022-07-23T12:33:08;24.20;46.30
51815;DHT22;37874;53.158;6.766;2022-07-23T12:35:39;24.20;45.50
51815;DHT22;37874;53.158;6.766;2022-07-23T12:38:11;24.20;46.10
51815;DHT22;37874;53.158;6.766;2022-07-23T12:40:46;24.20;45.80
51815;DHT22;37874;53.158;6.766;2022-07-23T12:43:33;24.30;46.30
51815;DHT22;37874;53.158;6.766;2022-07-23T12:51:27;24.50;46.10
51815;DHT22;37874;53.158;6.766;2022-07-23T12:53:58;24.50;45.70
51815;DHT22;37874;53.158;6.766;2022-07-23T12:56:30;24.60;45.60
51815;DHT22;37874;53.158;6.766;2022-07-23T13:01:28;24.70;45.40
51815;DHT22;37874;53.158;6.766;2022-07-23T13:04:08;24.80;44.90
51815;DHT22;37874;53.158;6.766;2022-07-23T13:09:10;24.70;45.30
51815;DHT22;37874;53.158;6.766;2022-07-23T13:11:37;24.60;45.20
51815;DHT22;37874;53.158;6.766;2022-07-23T13:14:04;24.60;45.60
51815;DHT22;37874;53.158;6.766;2022-07-23T13:16:31;24.50;45.80
51815;DHT22;37874;53.158;6.766;2022-07-23T13:18:58;24.50;45.30
51815;DHT22;37874;53.158;6.766;2022-07-23T13:21:24;24.40;45.70
51815;DHT22;37874;53.158;6.766;2022-07-23T13:23:50;24.40;45.70
51815;DHT22;37874;53.158;6.766;2022-07-23T13:26:15;24.40;45.50
51815;DHT22;37874;53.158;6.766;2022-07-23T13:28:41;24.50;45.80
51815;DHT22;37874;53.158;6.766;2022-07-23T13:31:07;24.40;45.50
51815;DHT22;37874;53.158;6.766;2022-07-23T13:33:33;24.40;45.60
51815;DHT22;37874;53.158;6.766;2022-07-23T13:35:59;24.50;45.60
51815;DHT22;37874;53.158;6.766;2022-07-23T13:38:25;24.40;45.30
51815;DHT22;37874;53.158;6.766;2022-07-23T13:40:52;24.40;45.10
51815;DHT22;37874;53.158;6.766;2022-07-23T13:43:20;24.40;45.40
51815;DHT22;37874;53.158;6.766;2022-07-23T13:45:46;24.50;45.50
51815;DHT22;37874;53.158;6.766;2022-07-23T13:48:13;24.50;44.90
51815;DHT22;37874;53.158;6.766;2022-07-23T13:50:39;24.60;45.50
51815;DHT22;37874;53.158;6.766;2022-07-23T13:53:08;24.60;45.40
51815;DHT22;37874;53.158;6.766;2022-07-23T13:55:36;24.60;45.20
51815;DHT22;37874;53.158;6.766;2022-07-23T13:58:02;24.70;45.10
51815;DHT22;37874;53.158;6.766;2022-07-23T14:00:29;24.80;44.50
51815;DHT22;37874;53.158;6.766;2022-07-23T14:02:56;24.90;44.60
51815;DHT22;37874;53.158;6.766;2022-07-23T14:05:22;24.90;44.30
51815;DHT22;37874;53.158;6.766;2022-07-23T14:07:47;24.90;44.70
51815;DHT22;37874;53.158;6.766;2022-07-23T14:10:15;24.90;44.50
51815;DHT22;37874;53.158;6.766;2022-07-23T14:12:41;24.80;44.40
51815;DHT22;37874;53.158;6.766;2022-07-23T14:15:07;24.80;44.70
51815;DHT22;37874;53.158;6.766;2022-07-23T14:17:36;24.80;45.10
51815;DHT22;37874;53.158;6.766;2022-07-23T14:20:03;24.80;44.80
51815;DHT22;37874;53.158;6.766;2022-07-23T14:22:28;24.90;45.00
51815;DHT22;37874;53.158;6.766;2022-07-23T14:24:54;24.90;45.30
51815;DHT22;37874;53.158;6.766;2022-07-23T14:27:23;25.00;44.80
51815;DHT22;37874;53.158;6.766;2022-07-23T16:31:01;25.40;44.60
51815;DHT22;37874;53.158;6.766;2022-07-23T16:33:27;25.50;44.40
51815;DHT22;37874;53.158;6.766;2022-07-23T16:35:52;25.50;44.30
51815;DHT22;37874;53.158;6.766;2022-07-23T16:38:18;25.50;44.70
51815;DHT22;37874;53.158;6.766;2022-07-23T16:40:45;25.60;44.50
51815;DHT22;37874;53.158;6.766;2022-07-23T16:43:10;25.60;44.60
51815;DHT22;37874;53.158;6.766;2022-07-23T16:45:36;25.60;44.70
51815;DHT22;37874;53.158;6.766;2022-07-23T16:48:02;25.60;44.40
51815;DHT22;37874;53.158;6.766;2022-07-23T16:50:28;25.60;44.60
51815;DHT22;37874;53.158;6.766;2022-07-23T16:52:53;25.50;44.60
51815;DHT22;37874;53.158;6.766;2022-07-23T16:55:19;25.50;44.90
51815;DHT22;37874;53.158;6.766;2022-07-23T16:57:45;25.40;44.80
51815;DHT22;37874;53.158;6.766;2022-07-23T17:00:11;25.40;44.90
51815;DHT22;37874;53.158;6.766;2022-07-23T17:02:39;25.30;45.20
51815;DHT22;37874;53.158;6.766;2022-07-23T17:05:06;25.30;45.20
51815;DHT22;37874;53.158;6.766;2022-07-23T17:07:33;25.30;45.20
51815;DHT22;37874;53.158;6.766;2022-07-23T17:09:59;25.40;45.20
51815;DHT22;37874;53.158;6.766;2022-07-23T17:12:25;25.40;45.30
51815;DHT22;37874;53.158;6.766;2022-07-23T17:14:50;25.30;45.10
51815;DHT22;37874;53.158;6.766;2022-07-23T17:17:16;25.40;45.50
51815;DHT22;37874;53.158;6.766;2022-07-23T17:19:42;25.30;45.10
51815;DHT22;37874;53.158;6.766;2022-07-23T17:22:07;25.40;45.00
51815;DHT22;37874;53.158;6.766;2022-07-23T17:24:33;25.40;45.00
51815;DHT22;37874;53.158;6.766;2022-07-23T17:26:59;25.30;45.10
51815;DHT22;37874;53.158;6.766;2022-07-23T17:29:26;25.40;45.30
51815;DHT22;37874;53.158;6.766;2022-07-23T17:31:52;25.40;45.10
51815;DHT22;37874;53.158;6.766;2022-07-23T17:34:17;25.40;45.10
51815;DHT22;37874;53.158;6.766;2022-07-23T17:36:43;25.30;45.30
51815;DHT22;37874;53.158;6.766;2022-07-23T17:39:09;25.30;45.30
51815;DHT22;37874;53.158;6.766;2022-07-23T17:41:35;25.30;45.50
51815;DHT22;37874;53.158;6.766;2022-07-23T17:44:00;25.20;45.50
51815;DHT22;37874;53.158;6.766;2022-07-23T17:46:27;25.20;45.40
51815;DHT22;37874;53.158;6.766;2022-07-23T17:48:53;25.20;45.40
51815;DHT22;37874;53.158;6.766;2022-07-23T17:51:19;25.20;45.40
51815;DHT22;37874;53.158;6.766;2022-07-23T17:53:45;25.20;45.50
51815;DHT22;37874;53.158;6.766;2022-07-23T17:56:10;25.30;45.40
51815;DHT22;37874;53.158;6.766;2022-07-23T17:58:36;25.20;45.50
51815;DHT22;37874;53.158;6.766;2022-07-23T18:01:03;25.20;45.60
51815;DHT22;37874;53.158;6.766;2022-07-23T18:03:28;25.20;45.70
51815;DHT22;37874;53.158;6.766;2022-07-23T18:05:54;25.20;45.70
51815;DHT22;37874;53.158;6.766;2022-07-23T18:08:20;25.20;46.10
51815;DHT22;37874;53.158;6.766;2022-07-23T18:10:45;25.20;46.70
51815;DHT22;37874;53.158;6.766;2022-07-23T18:13:11;25.10;46.80
51815;DHT22;37874;53.158;6.766;2022-07-23T18:15:37;25.10;47.10
51815;DHT22;37874;53.158;6.766;2022-07-23T18:18:02;25.10;47.30
51815;DHT22;37874;53.158;6.766;2022-07-23T18:20:28;25.00;47.60
51815;DHT22;37874;53.158;6.766;2022-07-23T18:22:54;25.00;47.90
51815;DHT22;37874;53.158;6.766;2022-07-23T18:25:20;24.90;48.00
51815;DHT22;37874;53.158;6.766;2022-07-23T18:27:46;24.90;48.20
51815;DHT22;37874;53.158;6.766;2022-07-23T18:30:12;24.80;48.30
51815;DHT22;37874;53.158;6.766;2022-07-23T18:32:38;24.80;48.40
51815;DHT22;37874;53.158;6.766;2022-07-23T18:35:05;24.70;48.70
51815;DHT22;37874;53.158;6.766;2022-07-23T18:37:32;24.60;48.60
51815;DHT22;37874;53.158;6.766;2022-07-23T18:39:58;24.60;48.80
51815;DHT22;37874;53.158;6.766;2022-07-23T18:42:24;24.50;48.70
51815;DHT22;37874;53.158;6.766;2022-07-23T18:44:50;24.50;48.90
51815;DHT22;37874;53.158;6.766;2022-07-23T18:47:15;24.40;49.10
51815;DHT22;37874;53.158;6.766;2022-07-23T18:49:41;24.40;49.30
51815;DHT22;37874;53.158;6.766;2022-07-23T18:52:07;24.40;49.40
51815;DHT22;37874;53.158;6.766;2022-07-23T18:54:32;24.30;49.20
51815;DHT22;37874;53.158;6.766;2022-07-23T18:56:58;24.30;49.40
51815;DHT22;37874;53.158;6.766;2022-07-23T18:59:24;24.20;49.50
51815;DHT22;37874;53.158;6.766;2022-07-23T19:01:49;24.20;49.60
51815;DHT22;37874;53.158;6.766;2022-07-23T19:04:15;24.20;49.80
51815;DHT22;37874;53.158;6.766;2022-07-23T19:06:41;24.20;50.00
51815;DHT22;37874;53.158;6.766;2022-07-23T19:09:08;24.20;50.20
51815;DHT22;37874;53.158;6.766;2022-07-23T19:11:35;24.10;50.30
51815;DHT22;37874;53.158;6.766;2022-07-23T19:14:03;24.10;50.40
51815;DHT22;37874;53.158;6.766;2022-07-23T19:16:29;24.10;50.40
51815;DHT22;37874;53.158;6.766;2022-07-23T19:18:54;24.00;50.30
51815;DHT22;37874;53.158;6.766;2022-07-23T19:21:20;24.00;50.40
51815;DHT22;37874;53.158;6.766;2022-07-23T19:23:47;24.00;50.70
51815;DHT22;37874;53.158;6.766;2022-07-23T19:26:12;23.90;50.90
51815;DHT22;37874;53.158;6.766;2022-07-23T19:28:38;23.90;51.00
51815;DHT22;37874;53.158;6.766;2022-07-23T19:31:04;23.90;51.00
51815;DHT22;37874;53.158;6.766;2022-07-23T19:33:30;23.90;51.00
51815;DHT22;37874;53.158;6.766;2022-07-23T19:35:56;23.80;51.10
51815;DHT22;37874;53.158;6.766;2022-07-23T19:38:22;23.80;51.00